Pagrindinis puslapis
METAR-TAF:

METAR-TAF

Oro uostai :

Osornas, Čilė

platuma: 40-36-41S, ilguma: 73-03-38W, Aukštis: 57 m

Dabartinis oras

Ataskaita buvo paskelbta 25 minutes, ne 06:52 UTC
Ramus vėjas
Temperatūra 0°C
Drėgmė 100%
Slėgis 1023 hPa
Matomumas: 6000 m

METAR: SCJO 140652Z AUTO 00000KT 6000 SCT001/// OVC068/// 00/00 Q1023

Laikas: 03:17 (07:17 UTC)

Prognozė

Ataskaita buvo paskelbta 20 valandos ir 17 minutes, ne 11:00 UTC
Prognozė galioja nuo 13 metu 12 UTC su 13 metu 24 UTC
Vėjas 3 kt nuo kintamojo kryptimis
Matomumas: 0500 m
Apsiniaukę ne aukštis 200 ft
rūkas
Tapsmas
nuo 13 metu 15 UTC su 13 metu 17 UTC
Matomumas 10 km arba daugiau
nėra debesų žemiau 1500 m ir nėra kamuolinių lietaus debesų

TAF: SCJO 131100Z 1312/1324 VRB03KT 0500 FG OVC002 TN00/1313Z TX08/1318Z BECMG 1315/1317 CAVOK

Orai ataskaitas ir orų prognozės (METAR, TAF).

turimą stotys yra geltonos ir raudonos taškus žemėlapyje.

Perkelti pele per norėdami pamatyti stoties vardą.

Tada spustelėkite, norėdami matyti oro stebėjimo ir prognozės.

Norėdami pakeisti žemėlapį: spustelėkite ant žalios mygtukų su juodo kryžiaus žemyn,; žalią mygtuką su brūkšneliu, jei norite nutolinti; arba žalių rodyklių gretimoms žemėlapius.


METAR-TAF: